Terminal Aerodrome Forecast
Issued by NWS Rapid City, SD

Home | Current Version | Previous Version | Graphics & Text | Print | Product List | Glossary On
Versions: 1 2 3 4 5 6 7 8 9 10 11 12 13 14 15 16 17 18
000
FTUS43 KUNR 281720
TAFRAP
TAF
KRAP 281720Z 2818/2918 36011KT P6SM SCT070
     FM282000 35009KT P6SM -TSRA OVC050CB
     FM290100 35011KT P6SM OVC025
     FM290800 33011KT P6SM -SHRA OVC012=

USA.gov is the U.S. government's official web portal to all federal, state and local government web resources and services.